North Adams, Massachusetts
Current Conditions -  °F | °C
As of 5:52 AM on Wednesday 22 Oct 2014 (Local Time) from KAQW Reporting Station
Overcast Overcast  
Wind Chill: 11°   Ceiling: 1900
Heat Index: 11°   Visibility: 10mi
Dew Point:   Wind: 6mph
Humidity: 80%   Direction: NA
Pressure: 30.02"   Gusts: NA
Location:  42.7°N, 73.11°W
Report Text: KAQW 220952Z AUTO VRB05KT 10SM OVC019 11/07 A3002 RMK AO2 SLP167 T01060072
Loading
Personal Weather Stations






























Interactive Weather Map
Tropical Storm Tracking
New forecast layout! Learn more

10-Day Weather Forecast

Advertisements
Track Severe Weather on mobile